createdAt,value
2023-04-11T00:01:23.898Z,101142.66
2023-04-11T00:04:26.381Z,101126.72
2023-04-11T00:07:28.670Z,101122.25
2023-04-11T00:10:32.155Z,101120.09
2023-04-11T00:13:34.346Z,101108.97
2023-04-11T00:16:37.215Z,101114.50
2023-04-11T00:19:39.828Z,101111.31
2023-04-11T00:22:43.779Z,101096.59
2023-04-11T00:25:45.815Z,101101.53
2023-04-11T00:28:48.639Z,101101.50
2023-04-11T00:31:51.567Z,101081.38
2023-04-11T00:34:55.491Z,101087.41
2023-04-11T00:37:58.851Z,101092.09
2023-04-11T00:41:02.681Z,101096.09
2023-04-11T00:44:04.970Z,101087.22
2023-04-11T00:47:07.579Z,101078.91
2023-04-11T00:50:10.525Z,101095.72
2023-04-11T00:53:13.340Z,101093.75
2023-04-11T00:56:15.786Z,101089.44
2023-04-11T00:59:19.373Z,101082.91
2023-04-11T01:02:22.003Z,101078.06
2023-04-11T01:05:24.527Z,101064.97
2023-04-11T01:08:27.334Z,101068.34
2023-04-11T01:11:32.693Z,101064.69
2023-04-11T01:14:35.201Z,101065.75
2023-04-11T01:17:37.535Z,101062.91
2023-04-11T01:20:39.829Z,101053.13
2023-04-11T01:23:42.449Z,101056.38
2023-04-11T01:26:44.929Z,101049.09
2023-04-11T01:29:48.024Z,101063.66
2023-04-11T01:32:50.988Z,101066.09
2023-04-11T01:35:53.235Z,101062.28
2023-04-11T01:38:56.429Z,101047.13
2023-04-11T01:42:01.215Z,101052.75
2023-04-11T01:45:07.278Z,101043.13
2023-04-11T01:48:09.797Z,101054.88
2023-04-11T01:51:12.394Z,101041.97
2023-04-11T01:54:14.476Z,101049.94
2023-04-11T01:57:16.727Z,101034.53
2023-04-11T02:00:19.888Z,101036.66
2023-04-11T02:03:23.614Z,101035.59
2023-04-11T02:06:27.704Z,101034.78
2023-04-11T02:09:29.877Z,101025.56
2023-04-11T02:12:32.069Z,101019.94
2023-04-11T02:15:34.199Z,101022.38
2023-04-11T02:18:37.128Z,101020.16
2023-04-11T02:21:39.964Z,101020.16
2023-04-11T02:24:42.553Z,101006.13
2023-04-11T02:27:44.765Z,101002.59
2023-04-11T02:30:47.257Z,100999.53
2023-04-11T02:33:49.391Z,100997.53
2023-04-11T02:36:54.574Z,100995.94
2023-04-11T02:39:57.861Z,100991.09
2023-04-11T02:43:01.399Z,100985.03
2023-04-11T02:46:12.531Z,100989.53
2023-04-11T02:49:19.785Z,100983.44
2023-04-11T02:52:22.893Z,100973.16
2023-04-11T02:55:25.171Z,100974.25
2023-04-11T02:58:29.087Z,100969.63
2023-04-11T03:01:35.016Z,100978.69
2023-04-11T03:04:37.682Z,100973.63
2023-04-11T03:07:47.173Z,100974.28
2023-04-11T03:10:49.769Z,100960.09
2023-04-11T03:13:52.158Z,100972.25
2023-04-11T03:16:55.259Z,100973.34
2023-04-11T03:19:58.951Z,100970.94
2023-04-11T03:23:01.228Z,100956.38
2023-04-11T03:26:05.429Z,100951.31
2023-04-11T03:29:08.985Z,100949.75
2023-04-11T03:32:21.050Z,100940.88
2023-04-11T03:35:24.177Z,100951.16
2023-04-11T03:38:26.621Z,100947.66
2023-04-11T03:41:28.815Z,100949.84
2023-04-11T03:44:31.954Z,100945.53
2023-04-11T03:47:34.550Z,100947.41
2023-04-11T03:50:40.758Z,100954.94
2023-04-11T03:53:43.586Z,100957.66
2023-04-11T03:57:04.160Z,100952.59
2023-04-11T04:00:10.397Z,100939.34
2023-04-11T04:03:21.868Z,100946.59
2023-04-11T04:06:27.196Z,100938.94
2023-04-11T04:09:29.919Z,100944.31
2023-04-11T04:12:34.767Z,100941.16
2023-04-11T04:15:51.626Z,100929.66
2023-04-11T04:18:58.437Z,100930.72
2023-04-11T04:22:01.648Z,100924.53
2023-04-11T04:25:13.208Z,100924.25
2023-04-11T04:28:20.670Z,100924.38
2023-04-11T04:31:26.097Z,100923.00
2023-04-11T04:34:55.543Z,100925.41
2023-04-11T04:38:06.622Z,100923.28
2023-04-11T04:41:34.338Z,100925.59
2023-04-11T04:44:36.654Z,100923.28
2023-04-11T04:47:46.516Z,100911.91
2023-04-11T04:50:48.718Z,100917.22
2023-04-11T04:53:51.684Z,100917.47
2023-04-11T04:56:54.345Z,100912.84
2023-04-11T04:59:57.626Z,100905.63
2023-04-11T05:03:00.220Z,100904.84
2023-04-11T05:06:06.617Z,100916.34
2023-04-11T05:09:09.834Z,100908.47
2023-04-11T05:12:13.954Z,100898.59
2023-04-11T05:15:18.735Z,100901.00
2023-04-11T05:18:25.312Z,100894.59
2023-04-11T05:21:28.964Z,100899.66
2023-04-11T05:24:32.733Z,100900.75
2023-04-11T05:27:36.278Z,100895.19
2023-04-11T05:30:39.086Z,100889.91
2023-04-11T05:33:43.412Z,100887.16
2023-04-11T05:36:47.445Z,100879.69
2023-04-11T05:39:49.497Z,100896.78
2023-04-11T05:42:51.581Z,100876.59
2023-04-11T05:45:55.302Z,100882.56
2023-04-11T05:49:01.553Z,100878.44
2023-04-11T05:52:03.605Z,100872.53
2023-04-11T05:55:11.623Z,100860.13
2023-04-11T05:58:13.964Z,100857.97
2023-04-11T06:01:18.907Z,100849.44
2023-04-11T06:04:27.604Z,100831.72
2023-04-11T06:07:33.745Z,100843.69
2023-04-11T06:10:39.160Z,100838.25
2023-04-11T06:13:42.234Z,100824.28
2023-04-11T06:16:45.920Z,100842.75
2023-04-11T06:19:52.341Z,100822.06
2023-04-11T06:23:09.694Z,100833.19
2023-04-11T06:26:18.467Z,100835.13
2023-04-11T06:29:26.934Z,100835.94
2023-04-11T06:32:42.646Z,100823.50
2023-04-11T06:35:59.277Z,100827.91
2023-04-11T06:39:02.570Z,100817.06
2023-04-11T06:42:04.730Z,100823.97
2023-04-11T06:45:18.312Z,100821.66
2023-04-11T06:48:24.457Z,100810.13
2023-04-11T06:51:26.854Z,100821.66
2023-04-11T06:54:29.416Z,100823.94
2023-04-11T06:57:31.596Z,100820.59
2023-04-11T07:00:36.391Z,100804.09
2023-04-11T07:03:38.678Z,100801.97
2023-04-11T07:06:41.062Z,100801.94
2023-04-11T07:09:48.924Z,100799.44
2023-04-11T07:12:51.407Z,100801.75
2023-04-11T07:15:54.306Z,100803.63
2023-04-11T07:18:56.912Z,100799.81
2023-04-11T07:22:00.617Z,100796.25
2023-04-11T07:25:06.237Z,100804.00
2023-04-11T07:28:09.202Z,100791.66
2023-04-11T07:31:12.438Z,100780.38
2023-04-11T07:34:14.641Z,100763.66
2023-04-11T07:37:18.313Z,100765.09
2023-04-11T07:40:23.801Z,100758.03
2023-04-11T07:43:32.039Z,100763.16
2023-04-11T07:46:34.522Z,100749.03
2023-04-11T07:49:36.700Z,100739.72
2023-04-11T07:52:40.421Z,100743.50
2023-04-11T07:55:43.198Z,100739.78
2023-04-11T07:58:47.779Z,100733.13
2023-04-11T08:02:08.300Z,100745.72
2023-04-11T08:05:12.364Z,100755.88
2023-04-11T08:08:16.831Z,100742.59
2023-04-11T08:11:21.903Z,100745.19
2023-04-11T08:14:24.180Z,100728.72
2023-04-11T08:17:30.577Z,100722.91
2023-04-11T08:20:47.048Z,100718.53
2023-04-11T08:23:54.278Z,100701.28
2023-04-11T08:26:57.304Z,100688.19
2023-04-11T08:29:59.761Z,100681.97
2023-04-11T08:33:02.499Z,100675.50
2023-04-11T08:36:12.704Z,100650.41
2023-04-11T08:39:15.251Z,100665.31
2023-04-11T08:42:25.997Z,100653.81
2023-04-11T08:45:29.398Z,100668.75
2023-04-11T08:48:32.480Z,100657.28
2023-04-11T08:52:05.002Z,100655.41
2023-04-11T08:55:11.956Z,100650.69
2023-04-11T08:58:17.290Z,100645.34
2023-04-11T09:01:37.840Z,100649.31
2023-04-11T09:04:45.143Z,100648.75
2023-04-11T09:07:54.239Z,100638.97
2023-04-11T09:11:01.620Z,100646.72
2023-04-11T09:14:11.549Z,100634.03
2023-04-11T09:17:13.762Z,100634.16
2023-04-11T09:20:19.508Z,100633.06
2023-04-11T09:23:24.269Z,100628.75
2023-04-11T09:26:39.618Z,100651.78
2023-04-11T09:29:51.209Z,100641.88
2023-04-11T09:32:55.546Z,100643.34
2023-04-11T09:36:03.025Z,100634.69
2023-04-11T09:39:55.161Z,100636.78
2023-04-11T09:43:02.573Z,100641.47
2023-04-11T09:46:11.942Z,100634.59
2023-04-11T09:49:15.077Z,100624.97
2023-04-11T09:52:18.959Z,100622.47
2023-04-11T09:55:24.876Z,100613.91
2023-04-11T09:58:36.633Z,100612.00
2023-04-11T10:01:47.351Z,100609.72
2023-04-11T10:05:06.688Z,100590.91
2023-04-11T10:08:22.792Z,100603.00
2023-04-11T10:11:42.925Z,100596.53
2023-04-11T10:14:46.938Z,100581.47
2023-04-11T10:18:09.657Z,100600.47
2023-04-11T10:21:41.725Z,100598.56
2023-04-11T10:25:28.466Z,100587.31
2023-04-11T10:28:35.904Z,100586.44
2023-04-11T10:32:06.765Z,100590.81
2023-04-11T10:38:54.202Z,100574.31
2023-04-11T10:42:31.877Z,100575.16
2023-04-11T10:45:39.985Z,100563.63
2023-04-11T10:53:09.671Z,100556.41
2023-04-11T10:56:43.305Z,100552.22
2023-04-11T11:00:17.797Z,100549.06
2023-04-11T11:03:30.214Z,100544.69
2023-04-11T11:06:38.065Z,100541.34
2023-04-11T11:09:51.979Z,100542.19
2023-04-11T11:12:58.634Z,100536.53
2023-04-11T11:17:20.090Z,100535.91
2023-04-11T11:20:39.103Z,100529.84
2023-04-11T11:24:02.812Z,100519.84
2023-04-11T11:27:08.657Z,100521.09
2023-04-11T11:30:13.285Z,100507.91
2023-04-11T11:33:19.893Z,100509.16
2023-04-11T11:36:24.870Z,100510.41
2023-04-11T11:39:31.748Z,100518.34
2023-04-11T11:42:36.085Z,100519.59
2023-04-11T11:46:30.485Z,100514.16
2023-04-11T11:51:06.358Z,100504.13
2023-04-11T11:54:18.165Z,100498.69
2023-04-11T11:57:27.147Z,100497.88
2023-04-11T12:18:25.362Z,100478.84
2023-04-11T12:21:30.217Z,100476.13
2023-04-11T12:25:30.541Z,100477.38
2023-04-11T12:28:36.059Z,100456.91
2023-04-11T12:31:42.751Z,100453.81
2023-04-11T12:34:47.187Z,100451.28
2023-04-11T12:37:49.468Z,100446.69
2023-04-11T12:44:56.976Z,100435.00
2023-04-11T12:47:59.216Z,100436.47
2023-04-11T12:51:01.542Z,100430.41
2023-04-11T12:55:03.204Z,100427.69
2023-04-11T13:10:17.472Z,100407.44
2023-04-11T13:53:53.173Z,100363.81
2023-04-11T13:58:14.457Z,100368.78
2023-04-11T14:27:13.713Z,100357.72
2023-04-11T14:30:16.004Z,100360.88
2023-04-11T14:41:26.876Z,100371.81
2023-04-11T14:54:02.400Z,100355.06
2023-04-11T15:03:37.070Z,100353.41
2023-04-11T15:06:39.683Z,100357.56
2023-04-11T15:09:52.733Z,100359.03
2023-04-11T15:26:23.152Z,100345.81
2023-04-11T15:43:02.370Z,100354.16
2023-04-11T15:46:30.379Z,100346.03
2023-04-11T15:49:32.514Z,100338.31
2023-04-11T15:52:34.709Z,100333.94
2023-04-11T15:55:40.929Z,100342.28
2023-04-11T15:58:43.091Z,100341.69
2023-04-11T16:01:47.996Z,100316.06
2023-04-11T16:10:08.484Z,100306.84
2023-04-11T16:24:25.680Z,100316.03
2023-04-11T16:33:14.780Z,100295.25
2023-04-11T17:06:22.565Z,100275.63
2023-04-11T17:30:38.102Z,100257.34
2023-04-11T17:34:34.212Z,100258.25
2023-04-11T17:38:24.354Z,100262.66
2023-04-11T17:42:41.175Z,100242.38
2023-04-11T17:46:21.570Z,100244.91
2023-04-11T17:49:47.504Z,100256.19
2023-04-11T17:52:53.513Z,100250.34
2023-04-11T17:55:55.530Z,100244.50
2023-04-11T17:58:57.664Z,100246.25
2023-04-11T18:02:00.504Z,100254.13
2023-04-11T18:05:10.410Z,100237.16
2023-04-11T18:08:32.834Z,100244.88
2023-04-11T18:11:44.831Z,100241.38
2023-04-11T18:14:47.434Z,100246.56
2023-04-11T18:17:51.691Z,100242.03
2023-04-11T18:21:01.752Z,100236.81
2023-04-11T18:24:04.499Z,100241.22
2023-04-11T18:27:07.258Z,100242.06
2023-04-11T18:30:16.219Z,100240.56
2023-04-11T18:33:38.768Z,100229.78
2023-04-11T18:36:48.911Z,100218.19
2023-04-11T18:39:52.695Z,100220.84
2023-04-11T18:42:58.925Z,100218.59
2023-04-11T18:46:02.264Z,100210.19
2023-04-11T18:49:07.616Z,100205.81
2023-04-11T18:53:14.255Z,100197.19
2023-04-11T18:56:24.110Z,100197.22
2023-04-11T18:59:33.477Z,100190.72
2023-04-11T19:02:39.233Z,100183.88
2023-04-11T19:05:50.543Z,100196.06
2023-04-11T19:08:53.417Z,100186.16
2023-04-11T19:12:22.437Z,100191.41
2023-04-11T19:15:26.087Z,100178.06
2023-04-11T19:18:28.422Z,100182.41
2023-04-11T19:21:31.032Z,100176.09
2023-04-11T19:25:39.609Z,100170.84
2023-04-11T19:33:26.385Z,100158.91
2023-04-11T19:36:30.370Z,100156.19
2023-04-11T19:39:38.224Z,100150.84
2023-04-11T19:42:47.599Z,100151.69
2023-04-11T19:45:49.991Z,100147.31
2023-04-11T19:48:53.816Z,100142.56
2023-04-11T19:51:57.904Z,100144.00
2023-04-11T19:55:00.247Z,100141.97
2023-04-11T19:58:03.889Z,100137.13
2023-04-11T20:01:07.726Z,100138.84
2023-04-11T20:04:09.908Z,100144.50
2023-04-11T20:07:12.793Z,100140.75
2023-04-11T20:10:18.944Z,100138.66
2023-04-11T20:13:21.170Z,100136.63
2023-04-11T20:16:25.311Z,100125.34
2023-04-11T20:19:30.322Z,100130.69
2023-04-11T20:22:33.643Z,100122.28
2023-04-11T20:25:36.053Z,100114.31
2023-04-11T20:28:38.187Z,100133.50
2023-04-11T20:31:40.573Z,100127.25
2023-04-11T20:34:43.953Z,100123.44
2023-04-11T20:37:47.463Z,100108.75
2023-04-11T20:40:49.903Z,100103.75
2023-04-11T20:43:52.278Z,100110.69
2023-04-11T20:46:54.687Z,100107.78
2023-04-11T20:49:57.688Z,100107.19
2023-04-11T20:53:03.616Z,100109.88
2023-04-11T20:56:09.919Z,100104.88
2023-04-11T20:59:13.224Z,100106.78
2023-04-11T21:02:15.787Z,100105.75
2023-04-11T21:05:20.852Z,100106.69
2023-04-11T21:08:23.873Z,100099.81
2023-04-11T21:11:26.295Z,100092.09
2023-04-11T21:14:28.561Z,100096.72
2023-04-11T21:17:35.862Z,100099.44
2023-04-11T21:20:41.981Z,100096.34
2023-04-11T21:23:44.203Z,100084.88
2023-04-11T21:26:47.150Z,100093.06
2023-04-11T21:29:49.864Z,100090.34
2023-04-11T21:32:52.292Z,100083.69
2023-04-11T21:35:55.629Z,100080.50
2023-04-11T21:38:59.340Z,100072.59
2023-04-11T21:42:01.779Z,100075.06
2023-04-11T21:45:04.607Z,100074.75
2023-04-11T21:48:06.813Z,100073.44
2023-04-11T21:51:09.352Z,100062.84
2023-04-11T21:54:11.838Z,100056.59
2023-04-11T21:57:14.023Z,100054.31
2023-04-11T22:00:17.802Z,100056.19
2023-04-11T22:03:20.565Z,100053.09
2023-04-11T22:06:24.494Z,100052.66
2023-04-11T22:09:26.873Z,100041.44
2023-04-11T22:12:29.448Z,100041.22
2023-04-11T22:15:35.856Z,100034.13
2023-04-11T22:18:47.782Z,100033.94
2023-04-11T22:21:58.097Z,100031.66
2023-04-11T22:25:00.716Z,100021.00
2023-04-11T22:28:04.327Z,100026.63
2023-04-11T22:31:09.879Z,100025.56
2023-04-11T22:34:12.283Z,100017.44
2023-04-11T22:37:14.377Z,100014.34
2023-04-11T22:40:22.280Z,100016.03
2023-04-11T22:43:24.444Z,100008.34
2023-04-11T22:46:40.385Z,100003.97
2023-04-11T22:49:45.011Z,100005.84
2023-04-11T22:52:47.864Z,100000.22
2023-04-11T22:55:50.263Z,100002.31
2023-04-11T22:58:55.169Z,99996.88
2023-04-11T23:01:58.124Z,99994.13
2023-04-11T23:05:04.203Z,99997.03
2023-04-11T23:08:07.088Z,99991.19
2023-04-11T23:11:09.410Z,99991.44
2023-04-11T23:14:15.537Z,99982.28
2023-04-11T23:17:17.949Z,99979.56
2023-04-11T23:20:22.290Z,99988.09
2023-04-11T23:23:25.897Z,99988.09
2023-04-11T23:26:28.212Z,99989.16
2023-04-11T23:29:32.223Z,99977.09
2023-04-11T23:32:35.840Z,99973.94
2023-04-11T23:35:38.318Z,99975.44
2023-04-11T23:38:42.164Z,99963.75
2023-04-11T23:41:45.116Z,99963.13
2023-04-11T23:44:47.613Z,99961.25
2023-04-11T23:47:51.198Z,99961.63
2023-04-11T23:50:53.387Z,99966.06
2023-04-11T23:53:57.327Z,99956.66
2023-04-11T23:56:59.770Z,99957.56
